createdAt,value
2019-04-29T00:06:39.771Z,13
2019-04-29T00:16:38.988Z,12.8
2019-04-29T00:26:38.229Z,12.5
2019-04-29T00:36:37.432Z,12.6
2019-04-29T00:46:36.650Z,12.5
2019-04-29T00:56:35.871Z,12.5
2019-04-29T01:06:35.084Z,12.9
2019-04-29T01:16:34.303Z,13.1
2019-04-29T01:26:33.523Z,12.5
2019-04-29T01:36:32.748Z,13.2
2019-04-29T01:46:31.964Z,13.2
2019-04-29T01:56:31.180Z,12.8
2019-04-29T02:06:30.407Z,12.6
2019-04-29T02:16:29.618Z,13.2
2019-04-29T02:26:28.841Z,12.4
2019-04-29T02:36:30.017Z,13.2
2019-04-29T02:46:27.275Z,13.2
2019-04-29T02:56:26.494Z,12.7
2019-04-29T03:06:25.715Z,12.6
2019-04-29T03:16:24.931Z,13.2
2019-04-29T03:26:24.155Z,12.6
2019-04-29T03:36:23.432Z,12.5
2019-04-29T03:46:22.612Z,12.8
2019-04-29T03:56:21.822Z,13
2019-04-29T04:06:21.037Z,12.9
2019-04-29T04:16:20.261Z,13.2
2019-04-29T04:26:19.471Z,12.8
2019-04-29T04:36:18.690Z,12.8
2019-04-29T04:46:17.965Z,13
2019-04-29T04:56:17.132Z,13.2
2019-04-29T05:06:16.352Z,13.3
2019-04-29T05:16:15.566Z,13.8
2019-04-29T05:26:14.826Z,13.8
2019-04-29T05:36:14.007Z,13.6
2019-04-29T05:46:17.231Z,14.3
2019-04-29T05:56:12.444Z,14.7
2019-04-29T06:06:12.344Z,14.7
2019-04-29T06:16:10.884Z,14.6
2019-04-29T06:26:10.108Z,14.1
2019-04-29T06:36:09.334Z,14
2019-04-29T06:46:08.553Z,14.2
2019-04-29T06:56:09.197Z,14.4
2019-04-29T07:06:06.988Z,14.2
2019-04-29T07:16:06.208Z,14.1
2019-04-29T07:26:05.480Z,14.2
2019-04-29T07:36:11.015Z,14.5
2019-04-29T07:46:05.360Z,14.4
2019-04-29T07:56:06.226Z,14.1
2019-04-29T08:06:02.321Z,13.8
2019-04-29T08:16:01.546Z,14.3
2019-04-29T08:26:02.400Z,14.6
2019-04-29T08:35:59.989Z,14.1
2019-04-29T08:45:59.262Z,14.4
2019-04-29T08:55:58.425Z,14.2
2019-04-29T09:06:04.983Z,14
2019-04-29T09:15:56.875Z,14.6
2019-04-29T09:26:02.678Z,13.9
2019-04-29T09:35:55.316Z,14.5
2019-04-29T09:45:58.619Z,14.4
2019-04-29T09:55:53.760Z,14.2
2019-04-29T10:05:52.974Z,13.8
2019-04-29T10:15:55.767Z,14.2
2019-04-29T10:25:51.426Z,14
2019-04-29T10:35:50.649Z,13.9
2019-04-29T10:45:49.866Z,14.3
2019-04-29T10:55:49.081Z,14.5
2019-04-29T11:05:59.790Z,14.4
2019-04-29T11:15:49.304Z,14.3
2019-04-29T11:25:50.948Z,14.3
2019-04-29T11:35:45.961Z,14.3
2019-04-29T11:45:45.188Z,14.7
2019-04-29T11:55:46.317Z,14
2019-04-29T12:05:44.741Z,14.2
2019-04-29T12:15:44.970Z,14.6
2019-04-29T12:25:42.064Z,14.1
2019-04-29T12:35:51.407Z,14.2
2019-04-29T12:45:40.507Z,14.2
2019-04-29T12:55:44.842Z,14.3
2019-04-29T13:05:39.495Z,14
2019-04-29T13:15:38.714Z,14.5
2019-04-29T13:25:37.935Z,14.6
2019-04-29T13:35:37.159Z,13.8
2019-04-29T13:45:36.377Z,14.3
2019-04-29T13:55:47.558Z,14.2
2019-04-29T14:05:36.616Z,14.4
2019-04-29T14:15:36.595Z,14.4
2019-04-29T14:25:33.263Z,13.8
2019-04-29T14:35:32.486Z,13.8
2019-04-29T14:45:31.714Z,14.1
2019-04-29T14:55:30.979Z,14.5
2019-04-29T15:05:32.875Z,14.7
2019-04-29T15:15:29.700Z,14.7
2019-04-29T15:25:28.603Z,14.7
2019-04-29T15:35:27.823Z,14.1
2019-04-29T15:45:27.934Z,14.3
2019-04-29T15:55:26.313Z,14.6
2019-04-29T16:05:25.529Z,13.8
2019-04-29T16:15:24.700Z,13.2
2019-04-29T16:25:23.922Z,13.3
2019-04-29T16:35:24.003Z,13.2
2019-04-29T16:45:22.381Z,12.6
2019-04-29T16:55:21.607Z,12.9
2019-04-29T17:05:20.834Z,13.2
2019-04-29T17:15:24.957Z,13
2019-04-29T17:25:19.276Z,13
2019-04-29T17:36:25.693Z,12.6
2019-04-29T17:46:23.937Z,12.6
2019-04-29T17:56:24.810Z,12.9
2019-04-29T18:06:24.105Z,13.1
2019-04-29T18:16:25.831Z,13.2
2019-04-29T18:26:20.837Z,12.4
2019-04-29T18:36:24.092Z,12.5
2019-04-29T18:46:19.325Z,13.1
2019-04-29T18:56:18.497Z,13.1
2019-04-29T19:06:17.772Z,13.3
2019-04-29T19:16:21.340Z,13.1
2019-04-29T19:26:18.108Z,13.2
2019-04-29T19:36:18.320Z,12.9
2019-04-29T19:46:22.450Z,13.1
2019-04-29T19:56:20.688Z,12.5
2019-04-29T20:06:18.806Z,13.1
2019-04-29T20:16:13.657Z,12.8
2019-04-29T20:26:15.305Z,13
2019-04-29T20:36:10.898Z,13.2
2019-04-29T20:46:10.078Z,13.1
2019-04-29T20:56:12.416Z,13.1
2019-04-29T21:06:08.411Z,12.5
2019-04-29T21:16:07.629Z,12.8
2019-04-29T21:26:08.640Z,12.5
2019-04-29T21:36:06.075Z,13.2
2019-04-29T21:46:05.770Z,12.7
2019-04-29T21:56:09.048Z,13.1
2019-04-29T22:06:03.735Z,13.1
2019-04-29T22:16:02.957Z,13
2019-04-29T22:26:02.186Z,12.6
2019-04-29T22:36:01.407Z,13.1
2019-04-29T22:46:04.697Z,13
2019-04-29T22:55:59.843Z,13.1
2019-04-29T23:06:00.055Z,12.5
2019-04-29T23:16:01.714Z,12.8
2019-04-29T23:25:59.800Z,12.5
2019-04-29T23:35:56.781Z,13
2019-04-29T23:45:56.840Z,12.7
2019-04-29T23:55:55.623Z,12.8
